Time;durP1;ratioP1;P1;durP2;ratioP2;P2;SDS_P1;SDS_P2;PMS_P1;PMS_P2;Temp;Humidity;BMP_temperature;BMP_pressure;BME280_temperature;BME280_humidity;BME280_pressure;Samples;Min_cycle;Max_cycle;Signal;HPM_P1;HPM_P2
2021/10/24 00:01:38;;;;;;;6.10;3.33;;;6.70;97.80;;;;;;5012642;28;20022;-79
2021/10/24 00:04:04;;;;;;;7.00;3.70;;;6.70;97.90;;;;;;5013314;28;20059;-79
2021/10/24 00:06:29;;;;;;;9.43;3.67;;;6.70;97.80;;;;;;5013088;28;20356;-80
2021/10/24 00:08:55;;;;;;;8.07;3.40;;;6.70;97.90;;;;;;5013174;28;20032;-79
2021/10/24 00:11:21;;;;;;;7.17;3.50;;;6.50;98.00;;;;;;5013411;28;20026;-79
2021/10/24 00:13:47;;;;;;;7.32;3.58;;;6.60;98.00;;;;;;5012741;28;20037;-79
2021/10/24 00:16:12;;;;;;;7.40;3.93;;;6.60;98.00;;;;;;5013229;28;20394;-79
2021/10/24 00:18:38;;;;;;;5.87;3.80;;;6.60;98.00;;;;;;5012656;28;20030;-79
2021/10/24 00:21:04;;;;;;;9.07;3.87;;;6.50;98.00;;;;;;5013449;28;20072;-80
2021/10/24 00:23:30;;;;;;;9.00;3.33;;;6.50;97.90;;;;;;5013889;28;20469;-79
2021/10/24 00:25:55;;;;;;;6.43;4.22;;;6.60;97.90;;;;;;5013141;28;20030;-79
2021/10/24 00:28:21;;;;;;;8.60;3.90;;;6.50;98.00;;;;;;5012731;28;20036;-79
2021/10/24 00:30:48;;;;;;;10.17;4.17;;;6.50;98.00;;;;;;5012716;28;20026;-79
2021/10/24 00:33:13;;;;;;;7.75;3.90;;;6.50;98.00;;;;;;5014928;28;20036;-80
2021/10/24 00:35:39;;;;;;;7.10;3.63;;;6.40;98.00;;;;;;5016961;28;20117;-80
2021/10/24 00:38:05;;;;;;;7.27;3.83;;;6.50;98.10;;;;;;5017454;28;20033;-80
2021/10/24 00:40:31;;;;;;;8.43;3.83;;;6.40;98.20;;;;;;5017163;28;20026;-79
2021/10/24 00:42:58;;;;;;;6.05;3.55;;;6.40;98.20;;;;;;5017030;28;20029;-78
2021/10/24 00:45:24;;;;;;;8.53;3.53;;;6.40;98.10;;;;;;5017392;28;20367;-79
2021/10/24 00:47:51;;;;;;;8.93;3.50;;;6.40;98.10;;;;;;5016232;28;20033;-79
2021/10/24 00:50:17;;;;;;;6.80;3.90;;;6.40;98.10;;;;;;5017270;28;20022;-79
2021/10/24 00:52:45;;;;;;;6.80;3.90;;;6.40;98.10;;;;;;5016521;28;20030;-79
2021/10/24 00:55:12;;;;;;;6.83;3.43;;;6.50;98.00;;;;;;5016529;28;20046;-79
2021/10/24 00:57:38;;;;;;;10.43;3.73;;;6.50;97.90;;;;;;5016550;28;20465;-79
2021/10/24 01:00:07;;;;;;;8.30;3.67;;;6.50;97.80;;;;;;5016975;28;20094;-79
2021/10/24 01:02:37;;;;;;;8.13;4.07;;;6.50;97.80;;;;;;5017281;28;20061;-79
2021/10/24 01:05:05;;;;;;;6.43;3.40;;;6.50;97.80;;;;;;5016847;28;20475;-79
2021/10/24 01:07:33;;;;;;;9.30;3.80;;;6.40;97.80;;;;;;5016719;28;20022;-79
2021/10/24 01:10:00;;;;;;;12.17;3.73;;;6.40;97.80;;;;;;5016555;28;20032;-79
2021/10/24 01:12:25;;;;;;;8.37;3.87;;;6.30;98.00;;;;;;5016496;28;20028;-80
2021/10/24 01:14:51;;;;;;;10.47;3.90;;;6.30;98.00;;;;;;5017137;28;20088;-80
2021/10/24 01:17:17;;;;;;;7.17;3.60;;;6.30;97.90;;;;;;5016601;28;20026;-79
2021/10/24 01:19:43;;;;;;;11.03;3.60;;;6.20;98.10;;;;;;5016346;28;20043;-79
2021/10/24 01:22:08;;;;;;;9.03;4.43;;;6.20;98.10;;;;;;5017227;28;20057;-79
2021/10/24 01:24:34;;;;;;;7.60;3.60;;;6.20;98.20;;;;;;5016440;28;20037;-80
2021/10/24 01:27:00;;;;;;;6.70;3.87;;;6.20;98.00;;;;;;5017528;28;20037;-79
2021/10/24 01:29:25;;;;;;;7.67;3.73;;;6.20;98.00;;;;;;5016670;28;20121;-79
2021/10/24 01:31:51;;;;;;;9.30;3.50;;;6.20;98.10;;;;;;5016856;28;20080;-79
2021/10/24 01:34:17;;;;;;;8.33;3.80;;;6.20;98.00;;;;;;5016092;28;20029;-79
2021/10/24 01:36:44;;;;;;;8.13;3.37;;;6.20;98.10;;;;;;5015897;28;20022;-80
2021/10/24 01:39:09;;;;;;;7.87;3.67;;;6.20;98.10;;;;;;5017592;28;20032;-80
2021/10/24 01:41:35;;;;;;;5.60;3.40;;;6.20;98.00;;;;;;5015733;28;20112;-80
2021/10/24 01:44:01;;;;;;;6.67;3.40;;;6.20;98.00;;;;;;5015060;28;20344;-80
2021/10/24 01:46:27;;;;;;;8.30;3.53;;;6.20;98.00;;;;;;5015937;28;20057;-80
2021/10/24 01:48:53;;;;;;;7.30;3.80;;;6.20;97.90;;;;;;5016902;28;20014;-79
2021/10/24 01:51:20;;;;;;;11.03;3.60;;;6.20;97.90;;;;;;5015976;28;20076;-80
2021/10/24 01:53:47;;;;;;;7.73;3.90;;;6.20;98.00;;;;;;5016384;28;20040;-79
2021/10/24 01:56:14;;;;;;;10.00;4.17;;;6.10;98.10;;;;;;5016698;28;20046;-80
2021/10/24 01:58:41;;;;;;;8.40;3.47;;;6.10;98.20;;;;;;5015168;28;20471;-78
2021/10/24 02:01:07;;;;;;;9.27;3.73;;;6.10;98.20;;;;;;5015691;28;20025;-78
2021/10/24 02:03:33;;;;;;;6.60;3.60;;;6.10;98.10;;;;;;5016465;28;20030;-78
2021/10/24 02:05:59;;;;;;;9.93;3.80;;;6.10;98.10;;;;;;5015035;28;20144;-79
2021/10/24 02:08:24;;;;;;;7.67;3.70;;;6.00;98.00;;;;;;5015745;28;20439;-79
2021/10/24 02:10:51;;;;;;;5.47;3.27;;;6.10;98.10;;;;;;5016061;28;20105;-80
2021/10/24 02:13:17;;;;;;;8.07;3.70;;;6.10;98.10;;;;;;5016670;28;20057;-79
2021/10/24 02:15:42;;;;;;;6.87;3.73;;;6.10;98.10;;;;;;5015917;28;20022;-80
2021/10/24 02:18:10;;;;;;;7.87;3.70;;;6.10;98.10;;;;;;5015507;28;20032;-79
2021/10/24 02:20:37;;;;;;;7.90;3.77;;;6.10;98.10;;;;;;5015570;28;20089;-79
2021/10/24 02:23:04;;;;;;;6.03;3.80;;;6.10;98.00;;;;;;5015786;28;20032;-79
2021/10/24 02:25:30;;;;;;;7.50;3.53;;;6.10;97.90;;;;;;5016380;28;20030;-79
2021/10/24 02:27:56;;;;;;;5.83;3.20;;;6.10;98.00;;;;;;5015069;28;20037;-79
2021/10/24 02:30:22;;;;;;;7.23;3.20;;;6.10;98.00;;;;;;5015171;28;20021;-78
2021/10/24 02:32:47;;;;;;;8.07;3.63;;;6.10;98.00;;;;;;5014246;28;20454;-79
2021/10/24 02:35:13;;;;;;;7.30;3.17;;;6.10;97.90;;;;;;5015089;28;20026;-79
2021/10/24 02:37:40;;;;;;;5.63;3.27;;;6.10;97.80;;;;;;5014555;28;20469;-79
2021/10/24 02:40:07;;;;;;;7.67;3.70;;;6.10;97.90;;;;;;5014973;28;20046;-79
2021/10/24 02:42:34;;;;;;;8.50;3.67;;;6.10;97.90;;;;;;5015784;28;20026;-79
2021/10/24 02:45:00;;;;;;;7.43;3.80;;;6.00;97.90;;;;;;5014678;28;20414;-79
2021/10/24 02:47:25;;;;;;;6.77;3.23;;;6.00;97.90;;;;;;5016245;28;20018;-79
2021/10/24 02:49:52;;;;;;;8.90;3.70;;;6.00;98.00;;;;;;5014169;28;20021;-80
2021/10/24 02:52:18;;;;;;;6.27;3.50;;;5.90;98.00;;;;;;5015447;28;20049;-80
2021/10/24 02:54:44;;;;;;;6.97;3.37;;;5.90;98.00;;;;;;5014186;28;20056;-80
2021/10/24 02:57:10;;;;;;;6.13;3.37;;;5.90;98.10;;;;;;5015481;28;20128;-79
2021/10/24 02:59:36;;;;;;;7.20;3.50;;;6.00;97.80;;;;;;5014948;28;20025;-79
2021/10/24 03:02:02;;;;;;;7.13;3.63;;;6.00;97.80;;;;;;5015218;28;20064;-79
2021/10/24 03:04:28;;;;;;;6.70;3.20;;;6.00;97.60;;;;;;5015532;28;20061;-79
2021/10/24 03:06:54;;;;;;;5.53;3.17;;;6.10;97.60;;;;;;5014147;28;20026;-79
2021/10/24 03:09:20;;;;;;;6.80;3.27;;;6.10;97.70;;;;;;5014201;28;20577;-79
2021/10/24 03:11:46;;;;;;;9.10;3.70;;;6.00;97.60;;;;;;5014000;28;20543;-80
2021/10/24 03:14:13;;;;;;;7.80;3.73;;;6.00;97.70;;;;;;5014397;28;20025;-79
2021/10/24 03:16:39;;;;;;;9.77;4.00;;;6.00;97.80;;;;;;5014550;28;20029;-79
2021/10/24 03:19:05;;;;;;;7.13;3.77;;;6.00;97.80;;;;;;5013666;28;20022;-79
2021/10/24 03:21:31;;;;;;;7.93;3.20;;;6.00;97.80;;;;;;5014040;28;20025;-79
2021/10/24 03:23:57;;;;;;;7.13;3.80;;;5.90;97.80;;;;;;5014653;28;20026;-79
2021/10/24 03:26:23;;;;;;;8.93;3.43;;;5.90;97.70;;;;;;5014907;28;20113;-79
2021/10/24 03:28:49;;;;;;;6.57;3.63;;;5.90;97.70;;;;;;5013439;28;20033;-79
2021/10/24 03:31:15;;;;;;;6.63;3.40;;;5.70;97.80;;;;;;5014508;28;20022;-79
2021/10/24 03:33:41;;;;;;;5.63;3.40;;;5.80;98.10;;;;;;5014426;28;20022;-79
2021/10/24 03:36:07;;;;;;;8.50;3.67;;;5.70;98.10;;;;;;5013650;28;20080;-79
2021/10/24 03:38:32;;;;;;;10.00;3.40;;;5.70;98.10;;;;;;5013871;28;20030;-79
2021/10/24 03:40:58;;;;;;;7.90;3.30;;;5.70;98.10;;;;;;5013840;28;20022;-80
2021/10/24 03:43:25;;;;;;;10.00;3.70;;;5.70;98.00;;;;;;5014116;28;20026;-80
2021/10/24 03:45:50;;;;;;;6.53;3.60;;;5.70;97.90;;;;;;5013322;28;20091;-79
2021/10/24 03:48:16;;;;;;;7.07;3.83;;;5.70;97.80;;;;;;5014312;28;20022;-79
2021/10/24 03:50:41;;;;;;;8.60;3.43;;;5.70;98.00;;;;;;5014443;28;20511;-79
2021/10/24 03:53:07;;;;;;;8.53;3.20;;;5.60;98.00;;;;;;5014523;28;20024;-79
2021/10/24 03:55:33;;;;;;;5.90;3.47;;;5.60;98.00;;;;;;5013327;28;20045;-79
2021/10/24 03:57:59;;;;;;;6.43;3.53;;;5.60;98.00;;;;;;5012994;28;20030;-79
2021/10/24 04:00:24;;;;;;;8.33;3.50;;;5.60;98.00;;;;;;5014764;28;20080;-79
2021/10/24 04:02:58;;;;;;;9.90;3.47;;;5.60;98.40;;;;;;5012881;28;20022;-77
2021/10/24 04:05:26;;;;;;;9.17;3.60;;;5.60;98.10;;;;;;5013575;28;20029;-79
2021/10/24 04:07:54;;;;;;;5.37;3.50;;;5.50;98.10;;;;;;5012142;28;20018;-79
2021/10/24 04:10:22;;;;;;;6.57;3.17;;;5.50;98.20;;;;;;5013726;28;20451;-79
2021/10/24 04:12:48;;;;;;;4.97;3.37;;;5.50;98.10;;;;;;5012897;28;20068;-79
2021/10/24 04:15:15;;;;;;;10.23;3.80;;;5.40;98.10;;;;;;5013425;28;20052;-78
2021/10/24 04:17:41;;;;;;;8.63;3.83;;;5.30;98.10;;;;;;5013362;28;20021;-78
2021/10/24 04:20:08;;;;;;;6.53;3.47;;;5.30;98.30;;;;;;5012920;28;20164;-79
2021/10/24 04:22:35;;;;;;;8.77;3.40;;;5.40;98.20;;;;;;5012856;28;20095;-79
2021/10/24 04:25:02;;;;;;;7.93;3.33;;;5.40;98.20;;;;;;5013938;28;20038;-79
2021/10/24 04:27:28;;;;;;;6.03;2.90;;;5.40;98.10;;;;;;5029674;28;20164;-79
2021/10/24 04:29:54;;;;;;;5.63;3.20;;;5.30;98.10;;;;;;5028999;28;20084;-78
2021/10/24 04:32:20;;;;;;;6.57;3.00;;;5.30;98.20;;;;;;5029830;28;20029;-78
2021/10/24 04:34:46;;;;;;;6.83;3.67;;;5.20;98.20;;;;;;5013989;28;20028;-79
2021/10/24 04:37:12;;;;;;;8.23;3.20;;;5.20;98.20;;;;;;5030190;28;20050;-78
2021/10/24 04:39:37;;;;;;;8.07;3.60;;;5.20;98.20;;;;;;5014364;28;20435;-78
2021/10/24 04:42:03;;;;;;;7.60;3.60;;;5.20;98.30;;;;;;5014011;28;20024;-78
2021/10/24 04:44:29;;;;;;;5.67;2.77;;;5.20;98.20;;;;;;5029653;28;20030;-78
2021/10/24 04:46:54;;;;;;;8.70;3.13;;;5.30;98.20;;;;;;5028813;28;20033;-78
2021/10/24 04:49:21;;;;;;;7.87;3.03;;;5.40;98.10;;;;;;5029210;28;20022;-78
2021/10/24 04:51:47;;;;;;;7.33;3.07;;;5.40;98.00;;;;;;5013580;28;20069;-79
2021/10/24 04:54:13;;;;;;;6.03;3.00;;;5.30;97.80;;;;;;5029091;28;20030;-77
2021/10/24 04:56:38;;;;;;;7.13;3.10;;;5.30;97.90;;;;;;5028991;28;20104;-77
2021/10/24 04:59:04;;;;;;;6.50;3.20;;;5.40;97.90;;;;;;5028813;28;20030;-78
2021/10/24 05:01:29;;;;;;;7.03;3.00;;;5.30;97.80;;;;;;5029243;28;20344;-78
2021/10/24 05:03:55;;;;;;;5.33;3.03;;;5.30;97.80;;;;;;5028426;28;20026;-77
2021/10/24 05:06:21;;;;;;;4.80;2.90;;;5.30;97.90;;;;;;5029510;28;20033;-78
2021/10/24 05:08:46;;;;;;;7.03;3.27;;;5.30;97.90;;;;;;5029230;28;20066;-78
2021/10/24 05:11:12;;;;;;;7.17;2.90;;;5.30;97.80;;;;;;5029067;28;20022;-78
2021/10/24 05:13:39;;;;;;;5.43;2.80;;;5.30;97.80;;;;;;5029353;28;20033;-78
2021/10/24 05:16:05;;;;;;;8.20;2.90;;;5.30;97.80;;;;;;5028603;28;20455;-79
2021/10/24 05:18:31;;;;;;;11.00;2.70;;;5.30;97.80;;;;;;5029844;28;20029;-77
2021/10/24 05:20:56;;;;;;;5.63;2.83;;;5.40;97.80;;;;;;5032472;28;20034;-78
2021/10/24 05:23:22;;;;;;;5.17;2.60;;;5.30;97.90;;;;;;5032956;28;20071;-78
2021/10/24 05:25:48;;;;;;;6.33;2.93;;;5.30;98.10;;;;;;5032720;28;20037;-79
2021/10/24 05:28:14;;;;;;;5.73;2.93;;;5.30;98.00;;;;;;5032937;28;20109;-78
2021/10/24 05:30:39;;;;;;;7.07;3.07;;;5.10;98.00;;;;;;5033087;28;20032;-78
2021/10/24 05:33:05;;;;;;;6.93;2.93;;;5.10;98.00;;;;;;5015296;28;20375;-78
2021/10/24 05:35:31;;;;;;;5.97;2.93;;;5.00;98.20;;;;;;5017105;28;20038;-78
2021/10/24 05:37:57;;;;;;;5.70;3.23;;;5.00;98.30;;;;;;5015648;28;20109;-78
2021/10/24 05:40:23;;;;;;;6.47;3.30;;;5.10;98.30;;;;;;5032321;28;20531;-78
2021/10/24 05:42:48;;;;;;;5.80;3.23;;;5.00;98.30;;;;;;5016616;28;20065;-78
2021/10/24 05:45:14;;;;;;;8.73;3.30;;;5.00;98.50;;;;;;5016599;28;20042;-78
2021/10/24 05:47:40;;;;;;;6.23;3.17;;;5.10;98.30;;;;;;5032346;28;20066;-78
2021/10/24 05:50:05;;;;;;;6.70;2.97;;;5.10;98.20;;;;;;5031940;28;20037;-77
2021/10/24 05:52:31;;;;;;;6.77;3.20;;;5.10;98.10;;;;;;5032052;28;20029;-77
2021/10/24 05:54:57;;;;;;;6.37;2.77;;;5.10;98.20;;;;;;5014728;28;20084;-78
2021/10/24 05:57:22;;;;;;;4.90;3.00;;;5.00;98.30;;;;;;5031747;28;20379;-77
2021/10/24 05:59:48;;;;;;;6.20;2.87;;;5.00;98.40;;;;;;5016591;28;20101;-77
2021/10/24 06:02:13;;;;;;;5.67;2.73;;;4.90;98.50;;;;;;5031973;28;20026;-77
2021/10/24 06:04:39;;;;;;;6.03;2.80;;;5.10;98.40;;;;;;5016820;28;20035;-78
2021/10/24 06:07:05;;;;;;;5.33;3.07;;;5.10;98.20;;;;;;5015979;28;20037;-78
2021/10/24 06:09:41;;;;;;;8.10;3.00;;;5.10;98.10;;;;;;5016323;28;20052;-77
2021/10/24 06:12:12;;;;;;;6.60;3.27;;;5.10;98.00;;;;;;5016036;28;20083;-78
2021/10/24 06:14:38;;;;;;;9.47;3.40;;;5.00;98.00;;;;;;5031812;28;20022;-78
2021/10/24 06:17:06;;;;;;;7.97;3.40;;;4.90;98.10;;;;;;5031355;28;20024;-80
2021/10/24 06:19:31;;;;;;;6.57;3.07;;;5.00;98.20;;;;;;5031786;28;20521;-81
2021/10/24 06:21:57;;;;;;;6.03;3.13;;;5.00;98.30;;;;;;5015995;28;20022;-80
2021/10/24 06:24:23;;;;;;;6.57;3.17;;;4.90;98.30;;;;;;5016740;28;20088;-79
2021/10/24 06:26:48;;;;;;;11.07;3.70;;;4.90;98.40;;;;;;5016366;28;20438;-80
2021/10/24 06:29:14;;;;;;;8.57;3.63;;;4.90;98.50;;;;;;5016061;28;20416;-80
2021/10/24 06:31:39;;;;;;;12.47;3.90;;;4.90;98.50;;;;;;5030835;28;20443;-78
2021/10/24 06:34:05;;;;;;;8.23;3.70;;;4.80;98.40;;;;;;5016071;28;20347;-78
2021/10/24 06:36:31;;;;;;;9.33;3.70;;;4.80;98.80;;;;;;5031854;28;20072;-79
2021/10/24 06:38:56;;;;;;;7.40;3.67;;;4.90;98.90;;;;;;5015550;28;20030;-79
2021/10/24 06:41:22;;;;;;;5.97;3.30;;;4.90;98.80;;;;;;5031636;28;20398;-79
2021/10/24 06:43:48;;;;;;;7.83;3.80;;;4.90;98.70;;;;;;5031423;28;20018;-79
2021/10/24 06:46:14;;;;;;;5.43;3.67;;;4.90;98.60;;;;;;5015257;28;20624;-79
2021/10/24 06:48:39;;;;;;;5.67;3.43;;;4.90;98.60;;;;;;5031201;28;20029;-79
2021/10/24 06:51:05;;;;;;;7.40;3.50;;;4.80;98.80;;;;;;5015389;28;20026;-79
2021/10/24 06:53:30;;;;;;;8.90;3.80;;;4.80;98.90;;;;;;5014281;28;20418;-78
2021/10/24 06:55:56;;;;;;;7.17;3.63;;;4.80;98.90;;;;;;5029694;28;20467;-79
2021/10/24 06:58:22;;;;;;;7.30;3.27;;;4.80;99.00;;;;;;5014157;28;20022;-79
2021/10/24 07:00:47;;;;;;;6.57;3.40;;;5.00;98.90;;;;;;5014786;28;20033;-78
2021/10/24 07:03:13;;;;;;;8.53;3.60;;;5.10;99.00;;;;;;5013798;28;20045;-78
2021/10/24 07:05:39;;;;;;;4.83;2.97;;;5.20;98.70;;;;;;5014549;28;20034;-78
2021/10/24 07:08:06;;;;;;;5.77;2.77;;;5.30;98.60;;;;;;5014418;28;20438;-79
2021/10/24 07:10:32;;;;;;;8.37;3.03;;;5.40;98.60;;;;;;5014345;28;20137;-78
2021/10/24 07:12:57;;;;;;;6.23;3.20;;;5.50;98.50;;;;;;5014760;28;20466;-80
2021/10/24 07:15:24;;;;;;;5.17;3.17;;;5.50;98.50;;;;;;5013991;28;20047;-80
2021/10/24 07:17:50;;;;;;;8.87;3.53;;;5.50;98.20;;;;;;5014195;28;20045;-79
2021/10/24 07:20:16;;;;;;;5.97;3.27;;;5.60;98.20;;;;;;5014707;28;20017;-80
2021/10/24 07:22:41;;;;;;;8.57;3.50;;;5.60;98.00;;;;;;5014123;28;20491;-80
2021/10/24 07:25:07;;;;;;;7.37;3.33;;;5.60;97.90;;;;;;5013221;28;20026;-79
2021/10/24 07:27:33;;;;;;;9.90;3.50;;;5.70;98.00;;;;;;5013803;28;20120;-79
2021/10/24 07:29:59;;;;;;;8.43;3.50;;;5.80;97.90;;;;;;5014466;28;20478;-79
2021/10/24 07:32:24;;;;;;;7.27;3.50;;;5.80;97.80;;;;;;5013937;28;20434;-81
2021/10/24 07:34:50;;;;;;;7.50;3.40;;;5.90;97.90;;;;;;5014008;28;20026;-81
2021/10/24 07:37:16;;;;;;;6.60;4.00;;;5.90;97.90;;;;;;5013309;28;20191;-78
2021/10/24 07:39:42;;;;;;;10.37;3.50;;;5.90;97.70;;;;;;5013901;28;20021;-77
2021/10/24 07:42:09;;;;;;;7.23;3.17;;;6.00;97.70;;;;;;5013138;28;20081;-77
2021/10/24 07:44:36;;;;;;;7.23;3.50;;;6.00;97.80;;;;;;5013402;28;20451;-76
2021/10/24 07:47:02;;;;;;;5.60;3.13;;;6.00;97.80;;;;;;5013172;28;20370;-76
2021/10/24 07:49:28;;;;;;;9.00;3.37;;;6.10;97.70;;;;;;5013425;28;20116;-77
2021/10/24 07:51:54;;;;;;;7.83;3.37;;;6.10;97.30;;;;;;5013447;28;20057;-80
2021/10/24 07:54:21;;;;;;;5.30;2.73;;;6.20;97.20;;;;;;5012767;28;20022;-80
2021/10/24 07:56:47;;;;;;;5.97;2.90;;;6.20;96.80;;;;;;5013247;28;20533;-81
2021/10/24 07:59:12;;;;;;;5.33;3.27;;;6.20;96.60;;;;;;5013051;28;20065;-77
2021/10/24 08:01:38;;;;;;;9.63;3.03;;;6.30;96.60;;;;;;5013044;28;20029;-76
2021/10/24 08:04:06;;;;;;;6.53;2.97;;;6.30;96.70;;;;;;5029310;28;20037;-76
2021/10/24 08:06:32;;;;;;;7.33;3.10;;;6.30;96.70;;;;;;5014289;28;20458;-76
2021/10/24 08:08:59;;;;;;;8.43;3.57;;;6.30;96.40;;;;;;5014270;28;20024;-76
2021/10/24 08:11:25;;;;;;;6.70;2.90;;;6.40;96.30;;;;;;5029152;28;20053;-77
2021/10/24 08:13:51;;;;;;;6.97;4.00;;;6.40;96.30;;;;;;5014521;28;20032;-78
2021/10/24 08:16:17;;;;;;;6.50;3.37;;;6.50;96.20;;;;;;5028727;28;20525;-77
2021/10/24 08:18:42;;;;;;;5.67;2.77;;;6.60;96.00;;;;;;5029330;28;20032;-79
2021/10/24 08:21:08;;;;;;;6.60;2.90;;;6.60;96.10;;;;;;5028854;28;20455;-79
2021/10/24 08:23:34;;;;;;;7.55;2.90;;;6.60;95.90;;;;;;5029654;28;20451;-78
2021/10/24 08:25:59;;;;;;;4.97;2.80;;;6.70;95.90;;;;;;5028460;28;20103;-79
2021/10/24 08:28:25;;;;;;;7.63;2.97;;;6.80;95.80;;;;;;5012579;28;20030;-77
2021/10/24 08:30:52;;;;;;;6.45;2.72;;;6.80;95.90;;;;;;5012757;28;20022;-77
2021/10/24 08:33:18;;;;;;;6.68;3.00;;;6.80;95.90;;;;;;5028762;28;20022;-78
2021/10/24 08:35:44;;;;;;;5.32;2.33;;;6.80;96.00;;;;;;5013364;28;20033;-79
2021/10/24 08:38:11;;;;;;;7.83;2.60;;;6.80;95.90;;;;;;5013371;28;20018;-79
2021/10/24 08:40:40;;;;;;;7.15;2.95;;;6.80;95.90;;;;;;5028829;28;20467;-79
2021/10/24 08:43:15;;;;;;;6.47;2.70;;;6.90;96.10;;;;;;5012109;28;20022;-81
2021/10/24 08:45:42;;;;;;;6.43;2.78;;;6.90;96.10;;;;;;5008909;28;20022;-80
2021/10/24 08:48:08;;;;;;;8.43;2.80;;;7.00;95.80;;;;;;5029170;28;20017;-80
2021/10/24 08:50:34;;;;;;;8.73;2.97;;;7.10;96.10;;;;;;5029382;28;20088;-80
2021/10/24 08:53:05;;;;;;;6.13;2.70;;;7.10;95.90;;;;;;5012800;28;20029;-81
2021/10/24 08:55:31;;;;;;;6.85;2.85;;;7.10;95.80;;;;;;5032216;28;20046;-78
2021/10/24 08:57:57;;;;;;;6.03;2.80;;;7.20;95.70;;;;;;5017325;28;20120;-78
2021/10/24 09:00:22;;;;;;;6.60;2.70;;;7.20;95.80;;;;;;5037457;28;20072;-78
2021/10/24 09:03:00;;;;;;;7.13;3.08;;;7.20;95.70;;;;;;5034136;28;20041;-80
2021/10/24 09:05:33;;;;;;;5.95;3.00;;;7.30;95.60;;;;;;5017389;28;20030;-79
2021/10/24 09:08:00;;;;;;;4.93;2.78;;;7.40;95.80;;;;;;5020415;28;20456;-79
2021/10/24 09:10:56;;;;;;;5.47;2.88;;;7.40;95.50;;;;;;5037639;28;20462;-79
2021/10/24 09:13:33;;;;;;;5.80;3.00;;;7.50;95.50;;;;;;5018074;28;20030;-79
2021/10/24 09:16:05;;;;;;;8.10;3.15;;;7.50;95.50;;;;;;5021993;28;20096;-79
2021/10/24 09:18:32;;;;;;;5.40;3.35;;;7.60;95.90;;;;;;5017415;28;20022;-77
2021/10/24 09:21:24;;;;;;;7.20;2.40;;;7.80;95.90;;;;;;5015626;28;20041;-81
2021/10/24 09:23:59;;;;;;;4.22;2.83;;;7.80;95.70;;;;;;5015124;28;20033;-80
2021/10/24 09:26:28;;;;;;;7.63;2.97;;;7.70;95.30;;;;;;5015565;28;20026;-80
2021/10/24 09:29:00;;;;;;;6.82;2.83;;;7.70;95.20;;;;;;5029712;28;20088;-78
2021/10/24 09:31:59;;;;;;;6.72;2.72;;;7.70;95.00;;;;;;5016448;28;20451;-81
2021/10/24 09:34:26;;;;;;;6.97;2.80;;;7.80;95.30;;;;;;5007866;28;20041;-82
2021/10/24 09:36:56;;;;;;;3.88;2.45;;;7.90;95.90;;;;;;5015081;28;20601;-82
2021/10/24 09:39:27;;;;;;;5.25;2.60;;;7.90;95.40;;;;;;5014336;28;20112;-82
2021/10/24 09:42:09;;;;;;;7.00;3.00;;;8.00;95.20;;;;;;5027380;28;20482;-82
2021/10/24 09:44:35;;;;;;;5.63;3.10;;;8.10;95.40;;;;;;5031108;28;20021;-80
2021/10/24 09:47:00;;;;;;;7.05;2.45;;;8.10;95.20;;;;;;5015305;28;20026;-81
2021/10/24 09:49:27;;;;;;;4.85;2.60;;;8.10;94.80;;;;;;5027588;28;20194;-76
2021/10/24 09:51:53;;;;;;;7.20;2.65;;;8.10;94.90;;;;;;5015165;28;20350;-77
2021/10/24 09:54:25;;;;;;;7.25;2.80;;;8.10;94.80;;;;;;5013303;28;20034;-80
2021/10/24 09:56:52;;;;;;;3.88;2.63;;;8.20;94.60;;;;;;5014514;28;20408;-81
2021/10/24 09:59:22;;;;;;;4.05;2.58;;;8.20;94.50;;;;;;5014963;28;20025;-81
2021/10/24 10:01:55;;;;;;;5.25;2.92;;;8.20;94.60;;;;;;5016184;28;20021;-79
2021/10/24 10:04:24;;;;;;;9.18;3.20;;;8.40;95.00;;;;;;5012431;28;20198;-79
2021/10/24 10:06:50;;;;;;;6.72;3.08;;;8.50;94.80;;;;;;5013023;28;20151;-79
2021/10/24 10:09:16;;;;;;;5.38;2.70;;;8.60;94.90;;;;;;5030604;28;20068;-79
2021/10/24 10:11:51;;;;;;;9.32;3.10;;;8.60;94.30;;;;;;5014358;28;20033;-78
2021/10/24 10:14:24;;;;;;;7.85;2.72;;;8.80;94.50;;;;;;5013769;28;20422;-80
2021/10/24 10:16:58;;;;;;;6.50;2.58;;;8.90;93.80;;;;;;5015381;28;20032;-81
2021/10/24 10:19:36;;;;;;;7.38;2.80;;;9.00;93.90;;;;;;5008295;28;20054;-78
2021/10/24 10:22:23;;;;;;;4.15;2.97;;;9.20;93.20;;;;;;5012529;28;20021;-81
2021/10/24 10:24:53;;;;;;;6.00;3.08;;;9.20;92.90;;;;;;5014803;28;20026;-79
2021/10/24 10:27:35;;;;;;;5.10;3.40;;;9.30;92.90;;;;;;5030838;28;20041;-79
2021/10/24 10:30:05;;;;;;;5.97;3.15;;;9.30;92.70;;;;;;5011781;28;20014;-80
2021/10/24 10:32:35;;;;;;;8.52;3.40;;;9.40;92.60;;;;;;5014839;28;20022;-80
2021/10/24 10:35:06;;;;;;;7.40;3.58;;;9.40;92.90;;;;;;5025616;28;20022;-79
2021/10/24 10:37:57;;;;;;;9.90;3.85;;;9.50;92.60;;;;;;5013886;28;20121;-79
2021/10/24 10:40:29;;;;;;;6.25;3.38;;;9.60;92.20;;;;;;5011374;28;20469;-80
2021/10/24 10:43:18;;;;;;;10.65;3.47;;;9.70;92.60;;;;;;5014601;28;20022;-79
2021/10/24 10:45:52;;;;;;;6.15;3.10;;;9.70;92.60;;;;;;5011440;28;20071;-78
2021/10/24 10:48:43;;;;;;;7.20;3.00;;;9.90;92.20;;;;;;5012593;28;20022;-78
2021/10/24 10:51:21;;;;;;;6.70;3.40;;;9.80;92.30;;;;;;5011992;28;20128;-78
2021/10/24 10:53:46;;;;;;;5.55;3.17;;;9.70;92.10;;;;;;5019926;28;20025;-83
2021/10/24 10:56:12;;;;;;;6.60;3.47;;;9.80;92.40;;;;;;5013881;28;20034;-86
2021/10/24 10:58:52;;;;;;;6.75;3.47;;;9.90;91.70;;;;;;5029977;28;20414;-86
2021/10/24 11:01:28;;;;;;;12.20;3.92;;;10.00;92.00;;;;;;5014244;28;20022;-82
2021/10/24 11:03:56;;;;;;;7.18;3.53;;;10.00;91.40;;;;;;5013519;28;20037;-84
2021/10/24 11:06:25;;;;;;;7.38;3.47;;;10.00;91.10;;;;;;5029543;28;20026;-86
2021/10/24 11:09:04;;;;;;;7.90;3.30;;;10.10;90.90;;;;;;5013427;28;20451;-80
2021/10/24 11:11:43;;;;;;;5.68;3.50;;;10.10;91.40;;;;;;5013646;28;20057;-83
2021/10/24 11:14:15;;;;;;;6.25;3.50;;;10.20;91.00;;;;;;5011248;28;20017;-83
2021/10/24 11:16:46;;;;;;;7.75;3.53;;;10.20;90.40;;;;;;5013252;28;20363;-83
2021/10/24 11:19:32;;;;;;;6.15;3.47;;;10.20;90.40;;;;;;5012580;28;20021;-79
2021/10/24 11:22:12;;;;;;;6.32;3.40;;;10.30;90.10;;;;;;5029628;28;20076;-80
2021/10/24 11:24:44;;;;;;;5.47;3.28;;;10.30;90.40;;;;;;5029062;28;20084;-77
2021/10/24 11:27:20;;;;;;;4.72;3.47;;;10.30;90.60;;;;;;5028748;28;20026;-79
2021/10/24 11:29:52;;;;;;;7.75;3.88;;;10.40;90.60;;;;;;5046075;28;20105;-79
2021/10/24 11:32:23;;;;;;;8.82;3.40;;;10.30;90.70;;;;;;5028261;28;20434;-77
2021/10/24 11:34:50;;;;;;;7.07;3.67;;;10.30;90.60;;;;;;5013558;28;20072;-79
2021/10/24 11:37:17;;;;;;;7.75;3.55;;;10.30;90.60;;;;;;5011844;28;20060;-79
2021/10/24 11:39:47;;;;;;;6.07;3.40;;;10.30;90.50;;;;;;5012608;28;20072;-78
2021/10/24 11:42:15;;;;;;;6.53;3.20;;;10.40;90.40;;;;;;5012638;28;20014;-79
2021/10/24 11:44:43;;;;;;;6.65;3.20;;;10.40;90.40;;;;;;5012090;28;20072;-83
2021/10/24 11:47:14;;;;;;;7.82;3.38;;;10.60;90.80;;;;;;5028391;28;20029;-76
2021/10/24 11:49:52;;;;;;;5.47;2.80;;;10.80;90.50;;;;;;5009779;28;20018;-78
2021/10/24 11:52:26;;;;;;;4.90;2.85;;;11.00;90.30;;;;;;5028400;28;20478;-76
2021/10/24 11:55:00;;;;;;;5.65;3.20;;;11.20;89.60;;;;;;5011886;28;20033;-78
2021/10/24 11:58:20;;;;;;;6.30;3.20;;;11.40;88.70;;;;;;5010586;28;20033;-80
2021/10/24 12:03:03;;;;;;;7.63;3.20;;;11.90;87.10;;;;;;5013069;28;20358;-78
2021/10/24 12:05:30;;;;;;;4.60;2.92;;;12.10;86.40;;;;;;5011521;28;20024;-78
2021/10/24 12:07:57;;;;;;;5.03;3.05;;;12.30;84.70;;;;;;5011987;28;20022;-79
2021/10/24 12:10:52;;;;;;;5.88;2.83;;;12.50;83.00;;;;;;5011642;28;20022;-79
2021/10/24 12:13:37;;;;;;;6.00;3.10;;;12.70;81.90;;;;;;5009828;28;20048;-79
2021/10/24 12:16:38;;;;;;;6.80;3.20;;;13.00;81.50;;;;;;5008814;28;20295;-78
2021/10/24 12:19:17;;;;;;;5.07;2.97;;;13.20;81.40;;;;;;5011310;28;20459;-86
2021/10/24 12:22:06;;;;;;;9.38;5.78;;;13.40;81.70;;;;;;5027644;28;20072;-78
2021/10/24 12:24:44;;;;;;;8.15;4.10;;;13.50;78.90;;;;;;5019124;28;20129;-79
2021/10/24 12:27:19;;;;;;;7.70;3.00;;;13.70;78.20;;;;;;5012795;28;20362;-80
2021/10/24 12:30:19;;;;;;;4.95;2.50;;;14.00;78.10;;;;;;5004518;28;20109;-78
2021/10/24 12:33:01;;;;;;;4.10;2.10;;;14.40;77.20;;;;;;5004472;28;20068;-80
2021/10/24 12:35:27;;;;;;;4.18;2.20;;;14.90;74.10;;;;;;5009751;28;20030;-80
2021/10/24 12:38:04;;;;;;;4.18;2.40;;;15.50;70.70;;;;;;5012406;28;20486;-80
2021/10/24 12:40:34;;;;;;;3.85;2.50;;;16.00;68.20;;;;;;5011563;28;20040;-79
2021/10/24 12:43:11;;;;;;;5.05;2.45;;;16.50;66.80;;;;;;5012081;28;20034;-81
2021/10/24 12:45:44;;;;;;;5.82;2.25;;;16.90;64.40;;;;;;5016438;28;20037;-80
2021/10/24 12:48:10;;;;;;;3.50;2.25;;;17.30;62.30;;;;;;5011121;28;20470;-81
2021/10/24 12:50:37;;;;;;;5.45;2.70;;;17.60;61.20;;;;;;5011594;28;20068;-81
2021/10/24 12:53:15;;;;;;;4.05;2.10;;;17.90;59.80;;;;;;5011039;28;20033;-81
2021/10/24 12:56:04;;;;;;;5.30;2.30;;;18.20;57.10;;;;;;5008226;28;20049;-79
2021/10/24 12:58:31;;;;;;;10.75;2.58;;;18.70;55.60;;;;;;5009827;28;20087;-79
2021/10/24 13:00:57;;;;;;;4.63;2.03;;;19.20;54.80;;;;;;5011208;28;20262;-78
2021/10/24 13:03:22;;;;;;;4.95;1.90;;;19.60;53.20;;;;;;5010789;28;20379;-80
2021/10/24 13:05:48;;;;;;;6.20;2.10;;;20.10;51.30;;;;;;4994042;28;20026;-81